Time;durP1;ratioP1;P1;durP2;ratioP2;P2;SDS_P1;SDS_P2;PMS_P1;PMS_P2;Temp;Humidity;BMP_temperature;BMP_pressure;BME280_temperature;BME280_humidity;BME280_pressure;Samples;Min_cycle;Max_cycle;Signal;HPM_P1;HPM_P2
2022/01/25 00:24:21;;;;;;;66.00;22.27;;;-0.40;99.90;;;;;;5022736;28;20448;-61
2022/01/25 00:27:04;;;;;;;69.47;23.93;;;-0.40;99.90;;;;;;5022311;28;20433;-61
2022/01/25 00:29:46;;;;;;;61.43;24.60;;;-0.40;99.90;;;;;;5022575;28;20428;-61
2022/01/25 00:32:14;;;;;;;68.17;24.70;;;-0.40;99.90;;;;;;5021975;28;20499;-60
2022/01/25 00:34:40;;;;;;;68.13;23.83;;;-0.40;99.90;;;;;;5020705;28;20956;-61
2022/01/25 00:37:06;;;;;;;63.20;23.90;;;-0.40;99.90;;;;;;5018291;28;20424;-62
2022/01/25 00:39:32;;;;;;;74.90;26.57;;;-0.40;99.90;;;;;;5019591;28;20301;-61
2022/01/25 00:41:57;;;;;;;64.70;24.20;;;-0.40;99.90;;;;;;5023468;28;20202;-61
2022/01/25 00:44:24;;;;;;;66.63;24.20;;;-0.40;99.90;;;;;;5021912;28;20464;-61
2022/01/25 00:46:50;;;;;;;68.07;26.23;;;-0.30;99.90;;;;;;5021355;28;20164;-62
2022/01/25 00:49:26;;;;;;;60.60;22.63;;;-0.30;99.90;;;;;;5019133;28;20412;-61
2022/01/25 00:56:49;;;;;;;65.63;23.10;;;-0.20;99.90;;;;;;5023207;28;20520;-61
2022/01/25 00:59:27;;;;;;;66.93;24.93;;;-0.20;99.90;;;;;;5018089;28;20412;-60
2022/01/25 01:02:03;;;;;;;57.40;23.63;;;-0.20;99.90;;;;;;5018621;28;20456;-60
2022/01/25 01:04:31;;;;;;;59.63;23.80;;;-0.20;99.90;;;;;;5018568;28;20471;-61
2022/01/25 01:06:57;;;;;;;55.80;22.77;;;-0.30;99.90;;;;;;5022763;28;20422;-60
2022/01/25 01:09:23;;;;;;;49.60;21.47;;;-0.30;99.90;;;;;;5022148;28;20450;-60
2022/01/25 01:11:59;;;;;;;62.47;23.70;;;-0.20;99.90;;;;;;5014525;28;20849;-61
2022/01/25 01:44:23;;;;;;;42.47;18.50;;;-0.20;99.90;;;;;;5024985;28;20440;-61
2022/01/25 01:47:35;;;;;;;43.07;17.63;;;-0.10;99.90;;;;;;5025305;28;20432;-61
2022/01/25 01:49:44;;;;;;;42.30;19.33;;;-0.10;99.90;;;;;;5021335;28;20427;-62
2022/01/25 01:52:11;;;;;;;38.13;16.67;;;-0.10;99.90;;;;;;5023097;28;20534;-61
2022/01/25 01:54:38;;;;;;;41.30;19.00;;;-0.10;99.90;;;;;;5023476;28;20436;-61
2022/01/25 01:57:05;;;;;;;44.67;18.87;;;-0.10;99.90;;;;;;5021294;28;20428;-61
2022/01/25 01:59:31;;;;;;;47.67;19.33;;;-0.10;99.90;;;;;;5020357;28;20941;-63
2022/01/25 02:01:56;;;;;;;45.00;19.17;;;-0.20;99.90;;;;;;5024344;28;20531;-62
2022/01/25 02:04:22;;;;;;;37.30;16.23;;;-0.20;99.90;;;;;;5023558;28;20763;-61
2022/01/25 02:06:48;;;;;;;43.67;19.87;;;-0.30;99.90;;;;;;5021048;28;20183;-62
2022/01/25 02:09:14;;;;;;;40.43;16.33;;;-0.30;99.90;;;;;;5020426;28;20618;-61
2022/01/25 02:11:40;;;;;;;38.73;17.90;;;-0.30;99.90;;;;;;5022358;28;20433;-60
2022/01/25 02:14:09;;;;;;;44.40;18.93;;;-0.30;99.90;;;;;;5021384;28;20190;-62
2022/01/25 02:24:44;;;;;;;37.40;17.03;;;-0.30;99.90;;;;;;5021677;28;20849;-61
2022/01/25 02:27:11;;;;;;;42.37;18.57;;;-0.30;99.90;;;;;;5022756;28;20466;-61
2022/01/25 02:29:37;;;;;;;37.90;17.13;;;-0.30;99.90;;;;;;5023056;28;20536;-60
2022/01/25 02:32:04;;;;;;;44.60;18.20;;;-0.30;99.90;;;;;;5019717;28;21012;-62
2022/01/25 02:34:29;;;;;;;37.13;16.53;;;-0.30;99.90;;;;;;5023580;28;20441;-61
2022/01/25 02:37:07;;;;;;;46.53;18.23;;;-0.40;99.90;;;;;;5023860;28;20433;-62
2022/01/25 02:39:37;;;;;;;36.97;16.07;;;-0.40;99.90;;;;;;5023601;28;20202;-62
2022/01/25 02:42:04;;;;;;;31.97;14.70;;;-0.40;99.90;;;;;;5022908;28;20953;-62
2022/01/25 02:44:30;;;;;;;33.90;15.20;;;-0.40;99.90;;;;;;5020335;28;20443;-61
2022/01/25 02:49:27;;;;;;;39.03;17.10;;;-0.40;99.90;;;;;;5023479;28;20445;-62
2022/01/25 02:51:53;;;;;;;40.53;17.90;;;-0.40;99.90;;;;;;5026682;28;20786;-61
2022/01/25 02:54:18;;;;;;;40.80;17.70;;;-0.30;99.90;;;;;;5026056;28;20979;-60
2022/01/25 02:56:45;;;;;;;36.63;17.23;;;-0.30;99.90;;;;;;5021621;28;20205;-61
2022/01/25 02:59:13;;;;;;;39.73;17.00;;;-0.30;99.90;;;;;;5021921;28;20625;-60
2022/01/25 03:01:40;;;;;;;39.87;17.17;;;-0.40;99.90;;;;;;5018564;28;20423;-61
2022/01/25 03:04:07;;;;;;;44.90;18.83;;;-0.30;99.90;;;;;;5024240;28;20962;-60
2022/01/25 03:06:34;;;;;;;44.17;17.83;;;-0.30;99.90;;;;;;5021386;28;20464;-61
2022/01/25 03:09:00;;;;;;;48.80;19.30;;;-0.30;99.90;;;;;;5023627;28;20471;-61
2022/01/25 03:11:26;;;;;;;47.83;20.40;;;-0.40;99.90;;;;;;5029956;28;20424;-59
2022/01/25 03:13:55;;;;;;;44.60;18.30;;;-0.40;99.90;;;;;;5030254;28;20460;-61
2022/01/25 03:16:33;;;;;;;42.20;19.30;;;-0.40;99.90;;;;;;5020408;28;20523;-61
2022/01/25 03:19:03;;;;;;;50.50;18.40;;;-0.40;99.90;;;;;;5021695;28;20962;-61
2022/01/25 03:21:35;;;;;;;41.47;16.60;;;-0.40;99.90;;;;;;5021151;28;21121;-61
2022/01/25 03:24:03;;;;;;;44.93;18.37;;;-0.40;99.90;;;;;;5022739;28;20878;-60
2022/01/25 03:26:29;;;;;;;44.53;18.10;;;-0.40;99.90;;;;;;5025601;28;20408;-61
2022/01/25 03:28:55;;;;;;;38.10;16.50;;;-0.40;99.90;;;;;;5011351;28;20564;-61
2022/01/25 03:31:21;;;;;;;40.40;17.10;;;-0.40;99.90;;;;;;5026841;28;20182;-61
2022/01/25 03:33:47;;;;;;;40.60;17.50;;;-0.40;99.90;;;;;;5027722;28;21346;-62
2022/01/25 03:36:14;;;;;;;43.17;17.70;;;-0.40;99.90;;;;;;5024679;28;20440;-62
2022/01/25 03:38:41;;;;;;;38.30;16.67;;;-0.40;99.90;;;;;;5023410;28;20269;-61
2022/01/25 03:41:09;;;;;;;47.83;19.00;;;-0.40;99.90;;;;;;5025394;28;20896;-62
2022/01/25 03:43:36;;;;;;;39.57;18.23;;;-0.40;99.90;;;;;;5027916;28;20472;-61
2022/01/25 03:46:13;;;;;;;41.10;17.43;;;-0.40;99.90;;;;;;5020988;28;21050;-62
2022/01/25 03:51:23;;;;;;;40.97;17.80;;;-0.40;99.90;;;;;;5022479;28;20477;-62
2022/01/25 03:53:49;;;;;;;46.50;19.63;;;-0.50;99.90;;;;;;5021910;28;20492;-60
2022/01/25 03:56:15;;;;;;;45.77;17.47;;;-0.50;99.90;;;;;;5021482;28;20207;-61
2022/01/25 03:58:40;;;;;;;46.67;18.80;;;-0.50;99.90;;;;;;5026410;28;20193;-62
2022/01/25 04:01:06;;;;;;;39.73;17.63;;;-0.50;99.90;;;;;;5024812;28;20271;-61
2022/01/25 04:03:38;;;;;;;43.87;17.00;;;-0.40;99.90;;;;;;5013667;28;20206;-61
2022/01/25 04:06:04;;;;;;;39.80;17.37;;;-0.50;99.90;;;;;;5020785;28;20183;-61
2022/01/25 04:08:33;;;;;;;44.40;19.00;;;-0.50;99.90;;;;;;5016772;28;20417;-61
2022/01/25 04:10:59;;;;;;;43.00;18.90;;;-0.50;99.90;;;;;;5026770;28;20480;-61
2022/01/25 04:13:25;;;;;;;41.17;18.63;;;-0.50;99.90;;;;;;5029343;28;20859;-61
2022/01/25 04:15:53;;;;;;;44.10;18.20;;;-0.50;99.90;;;;;;5028803;28;20180;-61
2022/01/25 04:18:36;;;;;;;43.43;17.67;;;-0.50;99.90;;;;;;5026985;28;20173;-61
2022/01/25 04:21:26;;;;;;;47.70;18.27;;;-0.50;99.90;;;;;;5027445;28;20440;-61
2022/01/25 04:26:36;;;;;;;42.70;19.00;;;-0.50;99.90;;;;;;5012946;28;20419;-61
2022/01/25 04:29:01;;;;;;;39.60;17.40;;;-0.40;99.90;;;;;;5011944;28;20434;-62
2022/01/25 04:31:27;;;;;;;41.93;19.07;;;-0.50;99.90;;;;;;5016729;28;20190;-62
2022/01/25 04:50:14;;;;;;;42.50;18.27;;;-0.60;99.90;;;;;;5024749;28;20796;-61
2022/01/25 04:52:52;;;;;;;44.33;19.70;;;-0.50;99.90;;;;;;5026885;28;20537;-61
2022/01/25 04:55:26;;;;;;;48.50;18.70;;;-0.50;99.90;;;;;;5018594;28;20535;-61
2022/01/25 04:58:08;;;;;;;46.13;18.00;;;-0.60;99.90;;;;;;5019978;28;20525;-60
2022/01/25 05:00:34;;;;;;;40.70;17.67;;;-0.60;99.90;;;;;;5018352;28;21207;-60
2022/01/25 05:03:10;;;;;;;44.20;20.50;;;-0.60;99.90;;;;;;5024300;28;20532;-60
2022/01/25 05:05:42;;;;;;;44.97;18.50;;;-0.60;99.90;;;;;;5026884;28;20439;-62
2022/01/25 05:08:20;;;;;;;44.47;19.13;;;-0.70;99.90;;;;;;5028224;28;20444;-62
2022/01/25 05:11:00;;;;;;;40.43;17.63;;;-0.70;99.90;;;;;;5026914;28;20441;-62
2022/01/25 05:13:41;;;;;;;40.77;18.33;;;-0.60;99.90;;;;;;5029323;28;20463;-62
2022/01/25 05:16:16;;;;;;;;;;;;;;;;;;;;;
2022/01/25 05:18:51;;;;;;;45.20;18.80;;;-0.60;99.90;;;;;;5024270;28;20926;-61
2022/01/25 05:24:01;;;;;;;50.30;18.70;;;-0.70;99.90;;;;;;5025992;28;20510;-61
2022/01/25 05:26:27;;;;;;;42.67;19.27;;;-0.70;99.90;;;;;;5022173;28;20431;-62
2022/01/25 05:28:53;;;;;;;43.97;19.30;;;-0.80;99.90;;;;;;5033888;28;20886;-62
2022/01/25 05:31:19;;;;;;;43.20;18.90;;;-0.80;99.90;;;;;;5024792;28;20531;-62
2022/01/25 05:33:45;;;;;;;49.40;20.30;;;-0.80;99.90;;;;;;5028956;28;20210;-62
2022/01/25 05:36:11;;;;;;;48.63;19.70;;;-0.80;99.90;;;;;;5027093;28;20515;-61
2022/01/25 05:38:37;;;;;;;40.50;19.43;;;-0.80;99.90;;;;;;5028355;28;20513;-62
2022/01/25 05:41:04;;;;;;;39.10;18.07;;;-0.80;99.90;;;;;;5024963;28;20836;-62
2022/01/25 05:46:18;;;;;;;49.87;18.43;;;-0.70;99.90;;;;;;5023216;28;20476;-61
2022/01/25 05:48:47;;;;;;;39.07;17.77;;;-0.70;99.90;;;;;;5025515;28;20520;-62
2022/01/25 05:51:13;;;;;;;43.73;18.03;;;-0.70;99.90;;;;;;5024927;28;20454;-62
2022/01/25 05:53:42;;;;;;;45.40;17.67;;;-0.70;99.90;;;;;;5021675;28;20557;-61
2022/01/25 05:56:08;;;;;;;39.87;17.57;;;-0.70;99.90;;;;;;5023664;28;20440;-61
2022/01/25 05:58:34;;;;;;;42.80;18.10;;;-0.70;99.90;;;;;;5023406;28;20420;-60
2022/01/25 06:01:00;;;;;;;41.17;17.67;;;-0.70;99.90;;;;;;5026833;28;20443;-63
2022/01/25 06:03:26;;;;;;;41.77;18.77;;;-0.60;99.90;;;;;;5023201;28;21039;-62
2022/01/25 06:05:51;;;;;;;44.40;19.10;;;-0.70;99.90;;;;;;5026182;28;20184;-62
2022/01/25 06:08:17;;;;;;;42.37;17.13;;;-0.60;99.90;;;;;;5022391;28;20174;-62
2022/01/25 06:10:42;;;;;;;40.27;18.23;;;-0.60;99.90;;;;;;5017612;28;20182;-62
2022/01/25 06:13:08;;;;;;;44.50;18.07;;;-0.60;99.90;;;;;;5022150;28;20201;-62
2022/01/25 06:15:34;;;;;;;43.40;17.73;;;-0.70;99.90;;;;;;5026110;28;20664;-61
2022/01/25 06:18:00;;;;;;;38.77;16.30;;;-0.70;99.90;;;;;;5025928;28;20228;-63
2022/01/25 06:20:25;;;;;;;35.83;15.07;;;-0.70;99.90;;;;;;5028723;28;20173;-61
2022/01/25 06:22:51;;;;;;;35.77;16.37;;;-0.70;99.90;;;;;;5027555;28;20208;-63
2022/01/25 06:25:17;;;;;;;39.60;16.80;;;-0.70;99.90;;;;;;5025338;28;20182;-62
2022/01/25 06:27:44;;;;;;;40.97;16.97;;;-0.70;99.90;;;;;;5019761;28;20652;-62
2022/01/25 06:30:13;;;;;;;45.53;19.17;;;-0.70;99.90;;;;;;5028665;28;20445;-62
2022/01/25 06:32:39;;;;;;;40.00;17.83;;;-0.70;99.90;;;;;;5026923;28;20465;-61
2022/01/25 06:35:06;;;;;;;44.60;19.13;;;-0.70;99.90;;;;;;5027624;28;20432;-62
2022/01/25 06:37:32;;;;;;;47.30;19.60;;;-0.70;99.90;;;;;;5026857;28;20444;-60
2022/01/25 06:39:58;;;;;;;46.60;18.47;;;-0.70;99.90;;;;;;5018126;28;20432;-62
2022/01/25 06:42:28;;;;;;;36.30;16.33;;;-0.70;99.90;;;;;;5022575;28;20464;-62
2022/01/25 06:44:56;;;;;;;35.20;14.97;;;-0.70;99.90;;;;;;5017602;28;20996;-62
2022/01/25 06:47:22;;;;;;;39.67;17.37;;;-0.70;99.90;;;;;;5026322;28;20451;-62
2022/01/25 06:49:48;;;;;;;40.47;16.93;;;-0.80;99.90;;;;;;5023504;28;20933;-61
2022/01/25 06:52:13;;;;;;;34.80;15.60;;;-0.80;99.90;;;;;;5028207;28;20201;-62
2022/01/25 06:54:39;;;;;;;37.63;17.07;;;-0.90;99.90;;;;;;5017140;28;20188;-62
2022/01/25 06:57:05;;;;;;;46.27;17.70;;;-0.90;99.90;;;;;;5026767;28;20327;-62
2022/01/25 06:59:31;;;;;;;46.40;17.87;;;-0.90;99.90;;;;;;5026558;28;20433;-62
2022/01/25 07:01:57;;;;;;;41.43;15.97;;;-0.90;99.90;;;;;;5027145;28;20448;-60
2022/01/25 07:04:22;;;;;;;42.03;18.37;;;-0.90;99.90;;;;;;5027689;28;20176;-62
2022/01/25 07:06:48;;;;;;;42.70;18.10;;;-0.90;99.90;;;;;;5022944;28;20235;-62
2022/01/25 07:09:13;;;;;;;46.73;18.37;;;-0.90;99.90;;;;;;5021900;28;20261;-62
2022/01/25 07:11:39;;;;;;;42.43;17.83;;;-0.90;99.90;;;;;;5020132;28;20232;-61
2022/01/25 07:14:05;;;;;;;38.10;17.70;;;-0.90;99.90;;;;;;5031382;28;20185;-62
2022/01/25 07:16:30;;;;;;;45.53;19.37;;;-0.90;99.90;;;;;;5025655;28;20201;-62
2022/01/25 07:18:56;;;;;;;39.27;17.50;;;-0.80;99.90;;;;;;5020140;28;20288;-63
2022/01/25 07:21:22;;;;;;;36.07;16.20;;;-0.80;99.90;;;;;;5025336;28;20254;-61
2022/01/25 07:23:48;;;;;;;44.57;18.20;;;-0.80;99.90;;;;;;5022150;28;20268;-61
2022/01/25 07:26:13;;;;;;;47.20;17.30;;;-0.80;99.90;;;;;;5029721;28;20775;-62
2022/01/25 07:28:39;;;;;;;41.13;17.33;;;-0.80;99.90;;;;;;5032634;28;20178;-61
2022/01/25 07:31:05;;;;;;;41.37;18.03;;;-0.70;99.90;;;;;;5020232;28;20182;-62
2022/01/25 07:33:30;;;;;;;36.80;17.60;;;-0.70;99.90;;;;;;5032253;28;21095;-61
2022/01/25 07:35:57;;;;;;;42.70;17.57;;;-0.70;99.90;;;;;;5028721;28;20416;-62
2022/01/25 07:38:23;;;;;;;40.63;17.97;;;-0.60;99.90;;;;;;5028367;28;20177;-61
2022/01/25 07:40:49;;;;;;;44.73;18.13;;;-0.60;99.90;;;;;;5028157;28;20435;-62
2022/01/25 07:43:14;;;;;;;39.20;17.03;;;-0.60;99.90;;;;;;5029715;28;20555;-62
2022/01/25 07:45:42;;;;;;;43.53;17.10;;;-0.60;99.90;;;;;;5034013;28;20436;-62
2022/01/25 07:48:09;;;;;;;40.27;16.20;;;-0.60;99.90;;;;;;5027331;28;20187;-62
2022/01/25 07:50:36;;;;;;;37.83;16.60;;;-0.60;99.90;;;;;;5028212;28;20444;-62
2022/01/25 07:53:02;;;;;;;31.53;15.07;;;-0.60;99.90;;;;;;5021030;28;20464;-63
2022/01/25 07:55:28;;;;;;;37.33;15.90;;;-0.60;99.90;;;;;;5024098;28;20498;-62
2022/01/25 07:57:54;;;;;;;36.73;17.60;;;-0.60;99.90;;;;;;5019591;28;20440;-62
2022/01/25 08:00:20;;;;;;;40.83;15.97;;;-0.60;99.90;;;;;;5025596;28;20178;-62
2022/01/25 08:02:47;;;;;;;41.90;17.00;;;-0.60;99.90;;;;;;5024420;28;20208;-62
2022/01/25 08:05:14;;;;;;;39.47;17.13;;;-0.60;99.90;;;;;;5027372;28;20691;-60
2022/01/25 08:07:41;;;;;;;41.97;17.70;;;-0.60;99.90;;;;;;5023143;28;20436;-60
2022/01/25 08:10:07;;;;;;;41.13;16.70;;;-0.60;99.90;;;;;;5019660;28;20491;-61
2022/01/25 08:12:32;;;;;;;44.93;17.77;;;-0.60;99.90;;;;;;5021925;28;20868;-65
2022/01/25 08:15:00;;;;;;;39.97;17.20;;;-0.60;99.90;;;;;;5028357;28;20505;-61
2022/01/25 08:17:25;;;;;;;41.27;17.67;;;-0.60;99.90;;;;;;5026129;28;20174;-62
2022/01/25 08:19:51;;;;;;;45.37;18.93;;;-0.60;99.90;;;;;;5027641;28;20455;-63
2022/01/25 08:22:18;;;;;;;39.40;17.00;;;-0.60;99.90;;;;;;5023845;28;20202;-60
2022/01/25 08:24:45;;;;;;;42.47;17.83;;;-0.50;99.90;;;;;;5024169;28;20711;-59
2022/01/25 08:27:11;;;;;;;47.20;19.30;;;-0.50;99.90;;;;;;5026829;28;20788;-62
2022/01/25 08:29:38;;;;;;;45.60;18.33;;;-0.50;99.90;;;;;;5025764;28;20435;-62
2022/01/25 08:32:05;;;;;;;42.20;17.47;;;-0.40;99.90;;;;;;5018006;28;20551;-62
2022/01/25 08:34:30;;;;;;;40.83;17.10;;;-0.40;99.90;;;;;;5029869;28;20432;-61
2022/01/25 08:36:56;;;;;;;46.07;18.10;;;-0.40;99.90;;;;;;5031608;28;20428;-63
2022/01/25 08:39:25;;;;;;;40.73;16.97;;;-0.30;99.90;;;;;;5030318;28;20201;-60
2022/01/25 08:41:51;;;;;;;40.60;17.80;;;-0.40;99.90;;;;;;5028062;28;20255;-62
2022/01/25 08:44:17;;;;;;;41.17;17.50;;;-0.40;99.90;;;;;;5027297;28;20444;-63
2022/01/25 08:46:42;;;;;;;42.23;17.23;;;-0.30;99.90;;;;;;5024045;28;20436;-62
2022/01/25 08:49:08;;;;;;;45.33;18.20;;;-0.40;99.90;;;;;;5023913;28;20364;-63
2022/01/25 08:51:34;;;;;;;39.30;17.70;;;-0.40;99.90;;;;;;5031807;28;20177;-63
2022/01/25 08:54:00;;;;;;;43.43;18.53;;;-0.30;99.90;;;;;;5026313;28;20201;-62
2022/01/25 08:56:25;;;;;;;48.73;18.50;;;-0.30;99.90;;;;;;5029813;28;20184;-63
2022/01/25 08:58:51;;;;;;;40.17;17.60;;;-0.30;99.90;;;;;;5025502;28;20974;-62
2022/01/25 09:01:17;;;;;;;48.87;19.07;;;-0.30;99.90;;;;;;5026038;28;20236;-63
2022/01/25 09:03:43;;;;;;;47.50;19.77;;;-0.30;99.90;;;;;;5026036;28;20213;-62
2022/01/25 09:06:08;;;;;;;46.33;17.93;;;-0.30;99.90;;;;;;5029559;28;20185;-60
2022/01/25 09:08:34;;;;;;;43.47;18.87;;;-0.20;99.90;;;;;;5025411;28;20216;-62
2022/01/25 09:11:03;;;;;;;42.77;17.97;;;-0.20;99.90;;;;;;5026348;28;20183;-61
2022/01/25 09:13:29;;;;;;;49.30;19.17;;;-0.10;99.90;;;;;;5026714;28;20219;-61
2022/01/25 09:15:55;;;;;;;40.07;18.03;;;-0.20;99.90;;;;;;5028038;28;20431;-61
2022/01/25 09:18:21;;;;;;;50.93;19.83;;;-0.20;99.90;;;;;;5027818;28;20444;-61
2022/01/25 09:20:47;;;;;;;47.03;19.13;;;-0.10;99.90;;;;;;5024658;28;20472;-61
2022/01/25 09:23:16;;;;;;;45.10;18.53;;;-0.10;99.90;;;;;;5027884;28;20502;-61
2022/01/25 09:25:42;;;;;;;45.50;18.90;;;-0.10;99.90;;;;;;5031034;28;20261;-64
2022/01/25 09:28:08;;;;;;;44.60;17.77;;;-0.10;99.90;;;;;;5029015;28;20499;-60
2022/01/25 09:30:33;;;;;;;48.37;19.37;;;0.00;99.90;;;;;;5025651;28;20182;-61
2022/01/25 09:32:59;;;;;;;49.47;19.27;;;0.00;99.90;;;;;;5029256;28;20304;-62
2022/01/25 09:35:25;;;;;;;37.20;16.77;;;0.00;99.90;;;;;;5030388;28;20189;-61
2022/01/25 09:37:51;;;;;;;46.30;19.73;;;0.00;99.90;;;;;;5026423;28;20554;-61
2022/01/25 09:40:18;;;;;;;43.10;18.70;;;0.00;99.90;;;;;;5029216;28;20502;-59
2022/01/25 09:42:44;;;;;;;49.73;20.63;;;0.10;99.90;;;;;;5022512;28;20457;-61
2022/01/25 09:45:10;;;;;;;46.70;19.70;;;0.20;99.90;;;;;;5028042;28;20817;-61
2022/01/25 09:47:39;;;;;;;41.23;17.30;;;0.30;99.90;;;;;;5024346;28;20437;-60
2022/01/25 09:50:06;;;;;;;43.37;18.70;;;0.30;99.90;;;;;;5028877;28;20580;-61
2022/01/25 09:52:32;;;;;;;42.03;19.07;;;0.40;99.90;;;;;;5021306;28;20494;-62
2022/01/25 09:55:01;;;;;;;41.20;18.90;;;0.50;99.90;;;;;;5022612;28;20425;-61
2022/01/25 09:57:26;;;;;;;40.07;18.00;;;0.50;99.90;;;;;;5031390;28;20432;-61
2022/01/25 09:59:53;;;;;;;45.30;20.07;;;0.60;99.90;;;;;;5031957;28;20437;-61
2022/01/25 10:02:52;;;;;;;42.50;18.37;;;0.60;99.90;;;;;;5030501;28;20232;-61
2022/01/25 10:05:27;;;;;;;48.00;20.40;;;0.70;99.90;;;;;;5028694;28;20431;-63
2022/01/25 10:08:20;;;;;;;45.30;19.10;;;0.70;99.90;;;;;;5029529;28;20420;-61
2022/01/25 10:10:54;;;;;;;42.90;18.47;;;0.80;99.90;;;;;;5017859;28;20510;-63
2022/01/25 10:13:24;;;;;;;40.53;19.10;;;0.80;99.90;;;;;;5024510;28;20995;-62
2022/01/25 10:15:59;;;;;;;39.27;18.27;;;0.90;99.90;;;;;;5027070;28;20434;-61
2022/01/25 10:18:36;;;;;;;42.63;19.10;;;0.90;99.90;;;;;;5028395;28;20438;-62
2022/01/25 10:21:02;;;;;;;39.50;18.80;;;1.00;99.90;;;;;;5020261;28;22049;-60
2022/01/25 10:23:31;;;;;;;40.77;18.37;;;1.10;99.90;;;;;;5027694;28;20495;-61
2022/01/25 10:26:00;;;;;;;46.70;19.73;;;1.10;99.90;;;;;;5021262;28;20361;-60
2022/01/25 10:28:29;;;;;;;46.20;19.20;;;1.10;99.90;;;;;;5026539;28;20796;-61
2022/01/25 10:31:05;;;;;;;43.83;18.30;;;1.20;99.90;;;;;;5029841;28;20436;-61
2022/01/25 10:33:40;;;;;;;45.27;19.80;;;1.20;99.90;;;;;;5030589;28;20456;-61
2022/01/25 10:36:17;;;;;;;45.60;18.73;;;1.30;99.90;;;;;;5021587;28;20499;-62
2022/01/25 10:38:45;;;;;;;40.90;18.00;;;1.50;99.90;;;;;;5023808;28;20495;-62
2022/01/25 10:41:17;;;;;;;38.73;17.70;;;1.50;99.90;;;;;;5025380;28;20441;-61
2022/01/25 10:43:45;;;;;;;47.37;20.07;;;1.60;99.90;;;;;;5024247;28;20933;-58
2022/01/25 10:46:17;;;;;;;41.20;18.50;;;1.70;99.90;;;;;;5024929;28;20442;-61
2022/01/25 10:48:52;;;;;;;42.93;19.30;;;1.80;99.90;;;;;;5028053;28;20856;-61
2022/01/25 10:51:45;;;;;;;43.50;19.47;;;1.90;99.90;;;;;;5027995;28;20435;-62
2022/01/25 10:54:14;;;;;;;43.37;17.60;;;1.90;99.90;;;;;;5029829;28;20467;-61
2022/01/25 10:56:45;;;;;;;39.10;17.70;;;1.90;98.70;;;;;;5025325;28;20488;-61
2022/01/25 10:59:15;;;;;;;41.50;18.70;;;2.00;99.90;;;;;;5024430;28;20510;-61
2022/01/25 11:01:50;;;;;;;41.50;17.83;;;2.00;99.90;;;;;;5021149;28;20828;-61
2022/01/25 11:04:18;;;;;;;47.60;18.43;;;2.10;99.90;;;;;;5025457;28;20445;-62
2022/01/25 11:06:44;;;;;;;36.63;16.37;;;2.20;99.90;;;;;;5024726;28;20468;-61
2022/01/25 11:09:12;;;;;;;61.20;21.17;;;2.30;99.90;;;;;;5022108;28;20507;-61
2022/01/25 11:11:51;;;;;;;44.03;19.50;;;2.50;99.90;;;;;;5022530;28;20532;-60
2022/01/25 11:17:02;;;;;;;41.77;18.23;;;2.70;96.00;;;;;;5028962;28;20850;-59
2022/01/25 11:19:29;;;;;;;35.73;17.10;;;2.90;97.40;;;;;;5024794;28;20417;-61
2022/01/25 11:21:56;;;;;;;30.30;14.50;;;3.00;96.30;;;;;;5020627;28;20446;-60
2022/01/25 11:24:23;;;;;;;32.07;14.53;;;3.20;96.00;;;;;;5028818;28;20431;-60
2022/01/25 11:26:52;;;;;;;31.77;15.00;;;3.40;93.10;;;;;;5028984;28;20428;-60
2022/01/25 11:29:19;;;;;;;37.07;15.20;;;3.50;90.20;;;;;;5025174;28;20816;-60
2022/01/25 11:31:51;;;;;;;36.50;16.67;;;3.60;88.80;;;;;;5020781;28;21068;-61
2022/01/25 11:34:21;;;;;;;32.90;13.70;;;3.70;89.60;;;;;;5019320;28;20451;-59
2022/01/25 11:37:01;;;;;;;35.00;15.50;;;3.80;84.50;;;;;;5020859;28;20551;-60
2022/01/25 11:39:28;;;;;;;33.50;14.20;;;3.80;77.80;;;;;;5021269;28;20456;-61
2022/01/25 11:42:13;;;;;;;35.03;15.00;;;3.70;80.80;;;;;;5020022;28;20449;-60
2022/01/25 11:44:58;;;;;;;38.33;14.63;;;3.70;82.10;;;;;;5027036;28;20426;-60
2022/01/25 11:47:33;;;;;;;29.97;14.57;;;3.80;84.60;;;;;;5022710;28;20445;-59
2022/01/25 11:50:05;;;;;;;32.60;14.83;;;4.00;81.10;;;;;;5023216;28;20426;-61
2022/01/25 11:52:31;;;;;;;37.10;16.10;;;4.10;81.50;;;;;;5023589;28;21022;-61
2022/01/25 11:55:19;;;;;;;29.33;13.07;;;4.30;76.80;;;;;;5021109;28;20441;-60
2022/01/25 11:57:55;;;;;;;28.67;13.03;;;4.40;73.30;;;;;;5024911;28;20978;-61
2022/01/25 12:00:44;;;;;;;34.90;15.87;;;4.40;76.10;;;;;;5027140;28;20462;-60
2022/01/25 12:03:19;;;;;;;32.37;15.00;;;4.60;74.30;;;;;;5011495;28;20457;-60
2022/01/25 12:06:22;;;;;;;27.20;13.60;;;4.70;74.20;;;;;;5018022;28;20868;-62
2022/01/25 12:12:07;;;;;;;31.87;15.13;;;5.10;71.50;;;;;;5013962;28;20449;-59
2022/01/25 12:14:41;;;;;;;34.87;15.87;;;5.40;67.60;;;;;;5019154;28;20422;-62
2022/01/25 12:17:15;;;;;;;31.37;15.10;;;5.60;65.40;;;;;;5016931;28;20488;-62
2022/01/25 12:19:48;;;;;;;29.33;15.50;;;5.60;64.60;;;;;;5016791;28;20424;-61
2022/01/25 12:22:41;;;;;;;32.63;15.43;;;5.30;65.10;;;;;;5009016;28;20515;-60
2022/01/25 12:27:56;;;;;;;32.93;14.73;;;5.40;67.80;;;;;;5019890;28;20853;-63
2022/01/25 12:30:42;;;;;;;33.70;16.67;;;5.60;67.40;;;;;;5017820;28;20798;-64
2022/01/25 12:33:21;;;;;;;32.60;16.17;;;5.70;65.70;;;;;;5019997;28;20458;-63
2022/01/25 12:36:00;;;;;;;29.60;14.83;;;5.40;64.50;;;;;;5017603;28;20884;-61
2022/01/25 12:38:38;;;;;;;30.93;15.23;;;5.00;66.10;;;;;;5016720;28;21546;-63
2022/01/25 12:41:20;;;;;;;31.90;15.40;;;4.60;69.70;;;;;;5016878;28;20433;-61
2022/01/25 12:44:02;;;;;;;32.60;15.87;;;4.30;70.80;;;;;;5017446;28;20458;-61
2022/01/25 12:46:34;;;;;;;31.80;14.13;;;4.00;75.20;;;;;;5013296;28;20430;-59
2022/01/25 12:49:03;;;;;;;25.27;13.30;;;3.80;77.90;;;;;;5014744;28;20437;-61
2022/01/25 12:51:34;;;;;;;25.93;12.80;;;3.60;81.50;;;;;;5022348;28;20438;-61
2022/01/25 12:54:03;;;;;;;30.83;14.13;;;3.50;84.70;;;;;;5018487;28;20454;-60
2022/01/25 12:56:34;;;;;;;29.70;15.33;;;3.30;87.40;;;;;;5019583;28;20442;-61
2022/01/25 12:59:29;;;;;;;30.03;15.40;;;3.20;90.20;;;;;;5019259;28;20440;-60
2022/01/25 13:01:56;;;;;;;27.80;14.77;;;3.20;91.20;;;;;;5015487;28;20451;-61
2022/01/25 13:04:22;;;;;;;31.73;14.90;;;3.10;92.20;;;;;;5024864;28;20437;-62
2022/01/25 13:06:51;;;;;;;29.47;14.20;;;3.10;92.60;;;;;;5021485;28;20415;-62
2022/01/25 13:09:37;;;;;;;35.47;14.97;;;3.10;93.30;;;;;;5023523;28;20182;-61
2022/01/25 13:17:02;;;;;;;35.50;16.10;;;3.20;95.10;;;;;;5023496;28;20515;-61
2022/01/25 13:19:43;;;;;;;30.30;14.43;;;3.20;94.40;;;;;;5018726;28;20956;-60
2022/01/25 13:22:14;;;;;;;35.00;15.27;;;3.20;94.00;;;;;;5018734;28;20242;-61
2022/01/25 13:25:12;;;;;;;32.77;14.97;;;3.30;95.10;;;;;;5027283;28;20441;-60
2022/01/25 13:27:51;;;;;;;35.97;16.33;;;3.40;97.30;;;;;;5039286;28;20496;-59
2022/01/25 13:30:44;;;;;;;33.03;15.60;;;3.50;96.40;;;;;;5028648;28;20425;-60
2022/01/25 13:33:17;;;;;;;31.23;14.90;;;3.70;94.30;;;;;;5018345;28;20468;-62
2022/01/25 13:35:48;;;;;;;29.37;14.23;;;3.90;93.60;;;;;;5024850;28;20460;-61
2022/01/25 13:38:16;;;;;;;31.67;15.07;;;4.10;91.90;;;;;;5025104;28;20427;-61
2022/01/25 13:45:59;;;;;;;30.23;13.60;;;4.60;86.90;;;;;;5026955;28;20426;-61
2022/01/25 13:48:27;;;;;;;30.17;14.67;;;4.80;84.90;;;;;;5017922;28;20647;-62
2022/01/25 13:51:05;;;;;;;28.37;13.83;;;4.90;83.30;;;;;;5023470;28;20992;-61
2022/01/25 13:53:31;;;;;;;27.80;13.83;;;5.10;79.50;;;;;;5011928;28;20500;-61
2022/01/25 13:55:59;;;;;;;34.07;15.60;;;5.20;78.50;;;;;;5022512;28;20462;-60
2022/01/25 13:58:37;;;;;;;30.30;14.80;;;5.40;75.10;;;;;;5020853;28;20435;-61
2022/01/25 14:01:05;;;;;;;37.37;13.93;;;5.50;73.50;;;;;;5022335;28;20433;-59
2022/01/25 14:03:37;;;;;;;26.93;13.90;;;5.90;72.50;;;;;;5022311;28;20465;-61
2022/01/25 14:06:26;;;;;;;36.70;16.60;;;6.40;68.50;;;;;;5018488;28;20438;-63
2022/01/25 14:08:59;;;;;;;31.10;15.23;;;6.80;65.10;;;;;;5010889;28;20442;-62
2022/01/25 14:11:34;;;;;;;29.07;15.00;;;7.20;62.60;;;;;;5023929;28;20438;-61
2022/01/25 14:22:45;;;;;;;30.27;15.50;;;7.10;59.60;;;;;;5018824;28;20504;-61
2022/01/25 14:25:10;;;;;;;28.53;15.40;;;6.80;60.50;;;;;;5017815;28;20443;-61
2022/01/25 14:27:50;;;;;;;33.77;15.90;;;6.40;61.50;;;;;;5020635;28;20437;-62
2022/01/25 14:30:17;;;;;;;37.87;17.37;;;5.90;62.80;;;;;;5015720;28;20700;-61
2022/01/25 14:32:43;;;;;;;33.73;17.20;;;5.50;65.20;;;;;;5014763;28;20461;-61
2022/01/25 14:35:12;;;;;;;29.43;15.33;;;5.20;68.10;;;;;;5025689;23;20508;-56
2022/01/25 14:37:46;;;;;;;32.23;16.43;;;4.90;71.70;;;;;;4994094;28;20184;-57
2022/01/25 14:40:14;;;;;;;33.10;16.23;;;4.70;75.40;;;;;;4999608;28;20430;-58
2022/01/25 14:42:43;;;;;;;31.70;15.87;;;4.50;78.30;;;;;;4998054;28;20800;-58
2022/01/25 14:45:20;;;;;;;35.83;17.00;;;4.30;81.50;;;;;;5010428;28;20456;-58
2022/01/25 14:47:51;;;;;;;38.17;16.17;;;4.20;85.20;;;;;;4998199;28;20541;-58